sensor_id;sensor_type;location;lat;lon;timestamp;temperature;humidity
51035;DHT22;37062;52.546;13.230;2022-07-06T00:01:15;18.90;99.90
51035;DHT22;37062;52.546;13.230;2022-07-06T00:03:42;18.80;99.90
51035;DHT22;37062;52.546;13.230;2022-07-06T00:06:10;18.80;99.90
51035;DHT22;37062;52.546;13.230;2022-07-06T00:08:37;18.70;99.90
51035;DHT22;37062;52.546;13.230;2022-07-06T00:11:04;18.70;99.90
51035;DHT22;37062;52.546;13.230;2022-07-06T00:13:33;18.70;99.90
51035;DHT22;37062;52.546;13.230;2022-07-06T00:16:00;18.60;99.90
51035;DHT22;37062;52.546;13.230;2022-07-06T00:18:29;18.60;99.90
51035;DHT22;37062;52.546;13.230;2022-07-06T00:20:56;18.60;99.90
51035;DHT22;37062;52.546;13.230;2022-07-06T00:23:23;18.60;99.90
51035;DHT22;37062;52.546;13.230;2022-07-06T00:25:50;18.50;99.90
51035;DHT22;37062;52.546;13.230;2022-07-06T00:28:17;18.50;99.90
51035;DHT22;37062;52.546;13.230;2022-07-06T00:30:45;18.50;99.90
51035;DHT22;37062;52.546;13.230;2022-07-06T00:33:12;18.50;99.90
51035;DHT22;37062;52.546;13.230;2022-07-06T00:35:39;18.40;99.90
51035;DHT22;37062;52.546;13.230;2022-07-06T00:38:07;18.40;99.90
51035;DHT22;37062;52.546;13.230;2022-07-06T00:40:34;18.40;99.90
51035;DHT22;37062;52.546;13.230;2022-07-06T00:43:01;18.40;99.90
51035;DHT22;37062;52.546;13.230;2022-07-06T00:45:28;18.30;99.90
51035;DHT22;37062;52.546;13.230;2022-07-06T00:47:57;18.20;99.90
51035;DHT22;37062;52.546;13.230;2022-07-06T00:50:24;18.20;99.90
51035;DHT22;37062;52.546;13.230;2022-07-06T00:52:53;18.20;99.90
51035;DHT22;37062;52.546;13.230;2022-07-06T00:55:21;18.10;99.90
51035;DHT22;37062;52.546;13.230;2022-07-06T00:57:49;18.10;99.90
51035;DHT22;37062;52.546;13.230;2022-07-06T01:00:19;18.10;99.90
51035;DHT22;37062;52.546;13.230;2022-07-06T01:02:47;18.10;99.90
51035;DHT22;37062;52.546;13.230;2022-07-06T01:05:16;18.00;99.90
51035;DHT22;37062;52.546;13.230;2022-07-06T01:07:44;18.10;99.90
51035;DHT22;37062;52.546;13.230;2022-07-06T01:10:13;18.10;99.90
51035;DHT22;37062;52.546;13.230;2022-07-06T01:12:41;18.00;99.90
51035;DHT22;37062;52.546;13.230;2022-07-06T01:15:11;18.00;99.90
51035;DHT22;37062;52.546;13.230;2022-07-06T01:17:38;18.00;99.90
51035;DHT22;37062;52.546;13.230;2022-07-06T01:20:10;17.90;99.90
51035;DHT22;37062;52.546;13.230;2022-07-06T01:22:37;17.90;99.90
51035;DHT22;37062;52.546;13.230;2022-07-06T01:25:05;17.90;99.90
51035;DHT22;37062;52.546;13.230;2022-07-06T01:27:33;17.90;99.90
51035;DHT22;37062;52.546;13.230;2022-07-06T01:30:04;17.90;99.90
51035;DHT22;37062;52.546;13.230;2022-07-06T01:32:31;17.90;99.90
51035;DHT22;37062;52.546;13.230;2022-07-06T01:34:59;17.90;99.90
51035;DHT22;37062;52.546;13.230;2022-07-06T01:37:28;17.90;99.90
51035;DHT22;37062;52.546;13.230;2022-07-06T01:39:58;17.90;99.90
51035;DHT22;37062;52.546;13.230;2022-07-06T01:42:25;17.90;99.90
51035;DHT22;37062;52.546;13.230;2022-07-06T01:44:54;17.90;99.90
51035;DHT22;37062;52.546;13.230;2022-07-06T01:47:21;17.80;99.90
51035;DHT22;37062;52.546;13.230;2022-07-06T01:49:50;17.90;99.90
51035;DHT22;37062;52.546;13.230;2022-07-06T01:52:18;17.90;99.90
51035;DHT22;37062;52.546;13.230;2022-07-06T01:54:47;17.90;99.90
51035;DHT22;37062;52.546;13.230;2022-07-06T01:57:14;17.90;99.90
51035;DHT22;37062;52.546;13.230;2022-07-06T01:59:42;18.00;99.90
51035;DHT22;37062;52.546;13.230;2022-07-06T02:02:09;18.00;99.90
51035;DHT22;37062;52.546;13.230;2022-07-06T02:04:37;18.00;99.90
51035;DHT22;37062;52.546;13.230;2022-07-06T02:07:04;18.00;99.90
51035;DHT22;37062;52.546;13.230;2022-07-06T02:09:31;18.10;99.90
51035;DHT22;37062;52.546;13.230;2022-07-06T02:11:59;18.00;99.90
51035;DHT22;37062;52.546;13.230;2022-07-06T02:14:26;17.90;99.90
51035;DHT22;37062;52.546;13.230;2022-07-06T02:16:53;17.90;99.90
51035;DHT22;37062;52.546;13.230;2022-07-06T02:19:20;17.80;99.90
51035;DHT22;37062;52.546;13.230;2022-07-06T02:21:47;17.80;99.90
51035;DHT22;37062;52.546;13.230;2022-07-06T02:24:15;17.70;99.90
51035;DHT22;37062;52.546;13.230;2022-07-06T02:26:42;17.60;99.90
51035;DHT22;37062;52.546;13.230;2022-07-06T02:29:11;17.60;99.90
51035;DHT22;37062;52.546;13.230;2022-07-06T02:31:38;17.50;99.90
51035;DHT22;37062;52.546;13.230;2022-07-06T02:34:05;17.40;99.90
51035;DHT22;37062;52.546;13.230;2022-07-06T02:36:32;17.40;99.90
51035;DHT22;37062;52.546;13.230;2022-07-06T02:38:59;17.40;99.90
51035;DHT22;37062;52.546;13.230;2022-07-06T02:41:28;17.30;99.90
51035;DHT22;37062;52.546;13.230;2022-07-06T02:43:55;17.20;99.90
51035;DHT22;37062;52.546;13.230;2022-07-06T02:46:23;17.10;99.90
51035;DHT22;37062;52.546;13.230;2022-07-06T02:48:51;17.10;99.90
51035;DHT22;37062;52.546;13.230;2022-07-06T02:51:18;17.10;99.90
51035;DHT22;37062;52.546;13.230;2022-07-06T02:53:46;17.20;99.90
51035;DHT22;37062;52.546;13.230;2022-07-06T02:56:13;17.10;99.90
51035;DHT22;37062;52.546;13.230;2022-07-06T02:58:40;17.10;99.90
51035;DHT22;37062;52.546;13.230;2022-07-06T03:01:07;17.10;99.90
51035;DHT22;37062;52.546;13.230;2022-07-06T03:03:36;17.10;99.90
51035;DHT22;37062;52.546;13.230;2022-07-06T03:06:05;17.10;99.90
51035;DHT22;37062;52.546;13.230;2022-07-06T03:08:32;17.10;99.90
51035;DHT22;37062;52.546;13.230;2022-07-06T03:11:00;17.10;99.90
51035;DHT22;37062;52.546;13.230;2022-07-06T03:13:29;17.10;99.90
51035;DHT22;37062;52.546;13.230;2022-07-06T03:15:56;17.00;99.90
51035;DHT22;37062;52.546;13.230;2022-07-06T03:18:23;17.00;99.90
51035;DHT22;37062;52.546;13.230;2022-07-06T03:20:52;17.00;99.90
51035;DHT22;37062;52.546;13.230;2022-07-06T03:23:20;17.00;99.90
51035;DHT22;37062;52.546;13.230;2022-07-06T03:25:47;17.00;99.90
51035;DHT22;37062;52.546;13.230;2022-07-06T03:28:15;17.00;99.90
51035;DHT22;37062;52.546;13.230;2022-07-06T03:30:42;17.00;99.90
51035;DHT22;37062;52.546;13.230;2022-07-06T03:33:09;16.90;99.90
51035;DHT22;37062;52.546;13.230;2022-07-06T03:35:36;16.80;99.90
51035;DHT22;37062;52.546;13.230;2022-07-06T03:38:07;16.70;99.90
51035;DHT22;37062;52.546;13.230;2022-07-06T03:40:35;16.70;99.90
51035;DHT22;37062;52.546;13.230;2022-07-06T03:43:02;16.60;99.90
51035;DHT22;37062;52.546;13.230;2022-07-06T03:45:33;16.60;99.90
51035;DHT22;37062;52.546;13.230;2022-07-06T03:48:01;16.70;99.90
51035;DHT22;37062;52.546;13.230;2022-07-06T03:50:31;16.80;99.90
51035;DHT22;37062;52.546;13.230;2022-07-06T03:52:58;16.80;99.90
51035;DHT22;37062;52.546;13.230;2022-07-06T03:55:28;16.90;99.90
51035;DHT22;37062;52.546;13.230;2022-07-06T03:58:00;17.10;99.90
51035;DHT22;37062;52.546;13.230;2022-07-06T04:00:31;17.40;99.90
51035;DHT22;37062;52.546;13.230;2022-07-06T04:03:03;17.80;99.90
51035;DHT22;37062;52.546;13.230;2022-07-06T04:05:35;18.30;99.90
51035;DHT22;37062;52.546;13.230;2022-07-06T04:08:03;18.60;99.90
51035;DHT22;37062;52.546;13.230;2022-07-06T04:10:47;18.60;99.90
51035;DHT22;37062;52.546;13.230;2022-07-06T04:13:14;18.60;99.90
51035;DHT22;37062;52.546;13.230;2022-07-06T04:15:41;18.70;99.90
51035;DHT22;37062;52.546;13.230;2022-07-06T04:18:08;18.70;99.90
51035;DHT22;37062;52.546;13.230;2022-07-06T04:20:42;18.70;99.90
51035;DHT22;37062;52.546;13.230;2022-07-06T04:23:10;18.80;99.90
51035;DHT22;37062;52.546;13.230;2022-07-06T04:25:37;18.70;99.90
51035;DHT22;37062;52.546;13.230;2022-07-06T04:28:06;18.50;99.90
51035;DHT22;37062;52.546;13.230;2022-07-06T04:30:35;19.30;99.90
51035;DHT22;37062;52.546;13.230;2022-07-06T04:33:04;20.60;99.90
51035;DHT22;37062;52.546;13.230;2022-07-06T04:35:33;21.50;99.90
51035;DHT22;37062;52.546;13.230;2022-07-06T04:38:00;21.70;99.90
51035;DHT22;37062;52.546;13.230;2022-07-06T04:40:27;21.50;99.90
51035;DHT22;37062;52.546;13.230;2022-07-06T04:42:58;21.50;99.90
51035;DHT22;37062;52.546;13.230;2022-07-06T04:45:29;21.70;99.90
51035;DHT22;37062;52.546;13.230;2022-07-06T04:47:57;21.90;99.90
51035;DHT22;37062;52.546;13.230;2022-07-06T04:50:24;21.90;99.90
51035;DHT22;37062;52.546;13.230;2022-07-06T04:52:52;21.90;99.90
51035;DHT22;37062;52.546;13.230;2022-07-06T04:55:20;21.90;99.90
51035;DHT22;37062;52.546;13.230;2022-07-06T04:57:48;21.70;99.90
51035;DHT22;37062;52.546;13.230;2022-07-06T05:00:18;21.80;99.90
51035;DHT22;37062;52.546;13.230;2022-07-06T05:02:48;21.90;99.90
51035;DHT22;37062;52.546;13.230;2022-07-06T05:05:17;22.30;99.90
51035;DHT22;37062;52.546;13.230;2022-07-06T05:07:46;22.30;99.90
51035;DHT22;37062;52.546;13.230;2022-07-06T05:10:13;22.40;99.90
51035;DHT22;37062;52.546;13.230;2022-07-06T05:12:43;22.50;99.90
51035;DHT22;37062;52.546;13.230;2022-07-06T05:15:12;22.50;99.90
51035;DHT22;37062;52.546;13.230;2022-07-06T05:17:39;22.50;99.90
51035;DHT22;37062;52.546;13.230;2022-07-06T05:20:08;22.60;99.90
51035;DHT22;37062;52.546;13.230;2022-07-06T05:22:38;22.70;99.90
51035;DHT22;37062;52.546;13.230;2022-07-06T05:25:06;22.40;99.90
51035;DHT22;37062;52.546;13.230;2022-07-06T05:27:33;22.10;99.90
51035;DHT22;37062;52.546;13.230;2022-07-06T05:30:00;22.30;99.90
51035;DHT22;37062;52.546;13.230;2022-07-06T05:32:29;22.30;99.90
51035;DHT22;37062;52.546;13.230;2022-07-06T05:34:56;22.10;99.90
51035;DHT22;37062;52.546;13.230;2022-07-06T05:37:24;21.90;99.90
51035;DHT22;37062;52.546;13.230;2022-07-06T05:39:51;21.80;99.90
51035;DHT22;37062;52.546;13.230;2022-07-06T05:42:19;21.70;99.90
51035;DHT22;37062;52.546;13.230;2022-07-06T05:44:47;21.90;99.90
51035;DHT22;37062;52.546;13.230;2022-07-06T05:47:14;21.90;99.90
51035;DHT22;37062;52.546;13.230;2022-07-06T05:49:59;22.40;99.90
51035;DHT22;37062;52.546;13.230;2022-07-06T05:53:01;22.70;99.90
51035;DHT22;37062;52.546;13.230;2022-07-06T05:55:30;22.60;99.90
51035;DHT22;37062;52.546;13.230;2022-07-06T05:57:59;22.10;99.90
51035;DHT22;37062;52.546;13.230;2022-07-06T06:00:29;21.90;99.90
51035;DHT22;37062;52.546;13.230;2022-07-06T06:03:01;22.10;99.90
51035;DHT22;37062;52.546;13.230;2022-07-06T06:05:30;22.40;99.90
51035;DHT22;37062;52.546;13.230;2022-07-06T06:08:04;23.10;99.90
51035;DHT22;37062;52.546;13.230;2022-07-06T06:10:31;23.60;99.90
51035;DHT22;37062;52.546;13.230;2022-07-06T06:13:02;23.90;99.90
51035;DHT22;37062;52.546;13.230;2022-07-06T06:15:29;24.00;99.90
51035;DHT22;37062;52.546;13.230;2022-07-06T06:17:56;24.00;99.90
51035;DHT22;37062;52.546;13.230;2022-07-06T06:20:23;24.00;99.90
51035;DHT22;37062;52.546;13.230;2022-07-06T06:22:51;24.20;99.90
51035;DHT22;37062;52.546;13.230;2022-07-06T06:25:21;24.50;99.90
51035;DHT22;37062;52.546;13.230;2022-07-06T06:27:53;24.30;99.90
51035;DHT22;37062;52.546;13.230;2022-07-06T06:30:20;24.00;99.90
51035;DHT22;37062;52.546;13.230;2022-07-06T06:32:47;23.70;99.90
51035;DHT22;37062;52.546;13.230;2022-07-06T06:35:14;23.60;99.90
51035;DHT22;37062;52.546;13.230;2022-07-06T06:37:41;23.50;99.90
51035;DHT22;37062;52.546;13.230;2022-07-06T06:40:09;23.70;99.90
51035;DHT22;37062;52.546;13.230;2022-07-06T06:42:38;23.80;99.90
51035;DHT22;37062;52.546;13.230;2022-07-06T06:45:10;23.80;99.90
51035;DHT22;37062;52.546;13.230;2022-07-06T06:47:37;23.90;99.90
51035;DHT22;37062;52.546;13.230;2022-07-06T06:50:05;24.00;99.90
51035;DHT22;37062;52.546;13.230;2022-07-06T06:52:32;24.00;99.90
51035;DHT22;37062;52.546;13.230;2022-07-06T06:54:59;23.90;99.90
51035;DHT22;37062;52.546;13.230;2022-07-06T06:57:26;24.10;99.90
51035;DHT22;37062;52.546;13.230;2022-07-06T06:59:55;24.20;99.90
51035;DHT22;37062;52.546;13.230;2022-07-06T07:02:23;24.30;99.90
51035;DHT22;37062;52.546;13.230;2022-07-06T07:04:50;24.30;99.90
51035;DHT22;37062;52.546;13.230;2022-07-06T07:07:17;24.50;99.90
51035;DHT22;37062;52.546;13.230;2022-07-06T07:09:44;24.70;99.90
51035;DHT22;37062;52.546;13.230;2022-07-06T07:12:11;24.70;99.90
51035;DHT22;37062;52.546;13.230;2022-07-06T07:14:40;25.00;99.90
51035;DHT22;37062;52.546;13.230;2022-07-06T07:17:09;25.30;99.90
51035;DHT22;37062;52.546;13.230;2022-07-06T07:19:36;25.40;99.90
51035;DHT22;37062;52.546;13.230;2022-07-06T07:22:03;25.20;99.90
51035;DHT22;37062;52.546;13.230;2022-07-06T07:24:31;25.10;99.90
51035;DHT22;37062;52.546;13.230;2022-07-06T07:26:58;25.50;99.90
51035;DHT22;37062;52.546;13.230;2022-07-06T07:29:25;25.50;99.90
51035;DHT22;37062;52.546;13.230;2022-07-06T07:31:52;25.70;99.90
51035;DHT22;37062;52.546;13.230;2022-07-06T07:34:21;26.00;99.90
51035;DHT22;37062;52.546;13.230;2022-07-06T07:36:48;25.80;99.90
51035;DHT22;37062;52.546;13.230;2022-07-06T07:39:15;25.50;99.90
51035;DHT22;37062;52.546;13.230;2022-07-06T07:41:42;25.30;99.90
51035;DHT22;37062;52.546;13.230;2022-07-06T07:44:09;25.70;99.90
51035;DHT22;37062;52.546;13.230;2022-07-06T07:46:37;25.90;99.90
51035;DHT22;37062;52.546;13.230;2022-07-06T07:49:04;25.90;99.90
51035;DHT22;37062;52.546;13.230;2022-07-06T07:51:34;26.10;99.90
51035;DHT22;37062;52.546;13.230;2022-07-06T07:54:02;26.50;99.90
51035;DHT22;37062;52.546;13.230;2022-07-06T07:56:29;26.50;99.90
51035;DHT22;37062;52.546;13.230;2022-07-06T07:58:55;26.90;99.90
51035;DHT22;37062;52.546;13.230;2022-07-06T08:01:27;27.50;99.90
51035;DHT22;37062;52.546;13.230;2022-07-06T08:03:54;28.10;99.90
51035;DHT22;37062;52.546;13.230;2022-07-06T08:06:21;28.50;99.90
51035;DHT22;37062;52.546;13.230;2022-07-06T08:08:50;28.90;99.90
51035;DHT22;37062;52.546;13.230;2022-07-06T08:11:17;28.90;99.90
51035;DHT22;37062;52.546;13.230;2022-07-06T08:13:44;28.20;99.90
51035;DHT22;37062;52.546;13.230;2022-07-06T08:16:11;27.80;99.90
51035;DHT22;37062;52.546;13.230;2022-07-06T08:18:38;27.30;99.90
51035;DHT22;37062;52.546;13.230;2022-07-06T08:21:05;27.00;99.90
51035;DHT22;37062;52.546;13.230;2022-07-06T08:23:32;26.90;99.90
51035;DHT22;37062;52.546;13.230;2022-07-06T08:26:05;27.00;99.90
51035;DHT22;37062;52.546;13.230;2022-07-06T08:28:32;27.40;99.90
51035;DHT22;37062;52.546;13.230;2022-07-06T08:30:59;27.30;99.90
51035;DHT22;37062;52.546;13.230;2022-07-06T08:33:29;26.90;99.90
51035;DHT22;37062;52.546;13.230;2022-07-06T08:35:56;26.50;99.90
51035;DHT22;37062;52.546;13.230;2022-07-06T08:38:23;26.30;99.90
51035;DHT22;37062;52.546;13.230;2022-07-06T08:40:51;26.10;99.90
51035;DHT22;37062;52.546;13.230;2022-07-06T08:43:20;26.10;99.90
51035;DHT22;37062;52.546;13.230;2022-07-06T08:45:50;26.80;99.90
51035;DHT22;37062;52.546;13.230;2022-07-06T08:48:23;27.30;99.90
51035;DHT22;37062;52.546;13.230;2022-07-06T08:50:50;27.40;99.90
51035;DHT22;37062;52.546;13.230;2022-07-06T08:53:18;27.10;99.90
51035;DHT22;37062;52.546;13.230;2022-07-06T08:55:46;26.70;99.90
51035;DHT22;37062;52.546;13.230;2022-07-06T08:58:13;26.70;99.90
51035;DHT22;37062;52.546;13.230;2022-07-06T09:00:42;26.40;99.90
51035;DHT22;37062;52.546;13.230;2022-07-06T09:03:11;26.60;99.90
51035;DHT22;37062;52.546;13.230;2022-07-06T09:05:40;26.40;99.90
51035;DHT22;37062;52.546;13.230;2022-07-06T09:08:07;26.00;99.90
51035;DHT22;37062;52.546;13.230;2022-07-06T09:10:34;26.20;99.90
51035;DHT22;37062;52.546;13.230;2022-07-06T09:13:05;26.90;99.90
51035;DHT22;37062;52.546;13.230;2022-07-06T09:15:33;26.80;99.90
51035;DHT22;37062;52.546;13.230;2022-07-06T09:18:03;26.30;99.90
51035;DHT22;37062;52.546;13.230;2022-07-06T09:20:30;25.50;99.90
51035;DHT22;37062;52.546;13.230;2022-07-06T09:22:58;25.10;99.90
51035;DHT22;37062;52.546;13.230;2022-07-06T09:25:27;24.90;99.90
51035;DHT22;37062;52.546;13.230;2022-07-06T09:27:56;24.60;99.90
51035;DHT22;37062;52.546;13.230;2022-07-06T09:30:25;24.30;99.90
51035;DHT22;37062;52.546;13.230;2022-07-06T09:32:54;24.10;99.90
51035;DHT22;37062;52.546;13.230;2022-07-06T09:35:24;24.00;99.90
51035;DHT22;37062;52.546;13.230;2022-07-06T09:38:04;24.00;99.90
51035;DHT22;37062;52.546;13.230;2022-07-06T09:40:34;23.90;99.90
51035;DHT22;37062;52.546;13.230;2022-07-06T09:43:12;23.80;99.90
51035;DHT22;37062;52.546;13.230;2022-07-06T09:45:41;23.70;99.90
51035;DHT22;37062;52.546;13.230;2022-07-06T09:48:10;23.40;99.90
51035;DHT22;37062;52.546;13.230;2022-07-06T09:50:43;23.40;99.90
51035;DHT22;37062;52.546;13.230;2022-07-06T09:53:12;23.20;99.90
51035;DHT22;37062;52.546;13.230;2022-07-06T09:55:43;23.00;99.90
51035;DHT22;37062;52.546;13.230;2022-07-06T09:58:10;23.10;99.90
51035;DHT22;37062;52.546;13.230;2022-07-06T10:00:37;23.20;99.90
51035;DHT22;37062;52.546;13.230;2022-07-06T10:03:05;23.10;99.90
51035;DHT22;37062;52.546;13.230;2022-07-06T10:05:33;23.10;99.90
51035;DHT22;37062;52.546;13.230;2022-07-06T10:08:01;23.00;99.90
51035;DHT22;37062;52.546;13.230;2022-07-06T10:10:32;22.90;99.90
51035;DHT22;37062;52.546;13.230;2022-07-06T10:12:59;22.80;99.90
51035;DHT22;37062;52.546;13.230;2022-07-06T10:15:30;22.80;99.90
51035;DHT22;37062;52.546;13.230;2022-07-06T10:17:59;22.80;99.90
51035;DHT22;37062;52.546;13.230;2022-07-06T10:20:28;22.70;99.90
51035;DHT22;37062;52.546;13.230;2022-07-06T10:22:59;22.70;99.90
51035;DHT22;37062;52.546;13.230;2022-07-06T10:25:28;22.90;99.90
51035;DHT22;37062;52.546;13.230;2022-07-06T10:27:56;23.20;99.90
51035;DHT22;37062;52.546;13.230;2022-07-06T10:30:24;23.40;99.90
51035;DHT22;37062;52.546;13.230;2022-07-06T10:32:51;23.70;99.90
51035;DHT22;37062;52.546;13.230;2022-07-06T10:35:18;24.00;99.90
51035;DHT22;37062;52.546;13.230;2022-07-06T10:38:02;24.40;99.90
51035;DHT22;37062;52.546;13.230;2022-07-06T10:40:34;24.80;99.90
51035;DHT22;37062;52.546;13.230;2022-07-06T10:43:18;25.10;99.90
51035;DHT22;37062;52.546;13.230;2022-07-06T10:45:52;25.30;99.90
51035;DHT22;37062;52.546;13.230;2022-07-06T10:48:34;25.60;99.90
51035;DHT22;37062;52.546;13.230;2022-07-06T10:51:04;25.50;99.90
51035;DHT22;37062;52.546;13.230;2022-07-06T10:53:33;25.60;99.90
51035;DHT22;37062;52.546;13.230;2022-07-06T10:56:06;25.60;99.90
51035;DHT22;37062;52.546;13.230;2022-07-06T10:58:48;25.50;99.90
51035;DHT22;37062;52.546;13.230;2022-07-06T11:01:17;25.00;99.90
51035;DHT22;37062;52.546;13.230;2022-07-06T11:03:46;24.70;99.90
51035;DHT22;37062;52.546;13.230;2022-07-06T11:06:15;24.30;99.90
51035;DHT22;37062;52.546;13.230;2022-07-06T11:08:53;24.10;99.90
51035;DHT22;37062;52.546;13.230;2022-07-06T11:11:24;23.80;99.90
51035;DHT22;37062;52.546;13.230;2022-07-06T11:13:53;23.40;99.90
51035;DHT22;37062;52.546;13.230;2022-07-06T11:16:22;23.30;99.90
51035;DHT22;37062;52.546;13.230;2022-07-06T11:19:00;23.30;99.90
51035;DHT22;37062;52.546;13.230;2022-07-06T11:21:49;23.40;99.90
51035;DHT22;37062;52.546;13.230;2022-07-06T11:24:19;23.20;99.90
51035;DHT22;37062;52.546;13.230;2022-07-06T11:26:50;23.20;99.90
51035;DHT22;37062;52.546;13.230;2022-07-06T11:29:19;23.40;99.90
51035;DHT22;37062;52.546;13.230;2022-07-06T11:31:49;23.50;99.90
51035;DHT22;37062;52.546;13.230;2022-07-06T11:34:19;23.70;99.90
51035;DHT22;37062;52.546;13.230;2022-07-06T11:36:46;23.90;99.90
51035;DHT22;37062;52.546;13.230;2022-07-06T11:39:14;24.20;99.90
51035;DHT22;37062;52.546;13.230;2022-07-06T11:41:41;24.30;99.90
51035;DHT22;37062;52.546;13.230;2022-07-06T11:44:10;24.50;99.90
51035;DHT22;37062;52.546;13.230;2022-07-06T11:46:36;24.50;99.90
51035;DHT22;37062;52.546;13.230;2022-07-06T11:49:05;24.60;99.90
51035;DHT22;37062;52.546;13.230;2022-07-06T11:51:34;24.30;99.90
51035;DHT22;37062;52.546;13.230;2022-07-06T11:54:08;23.90;99.90
51035;DHT22;37062;52.546;13.230;2022-07-06T11:56:35;23.60;99.90
51035;DHT22;37062;52.546;13.230;2022-07-06T11:59:03;23.60;99.90
51035;DHT22;37062;52.546;13.230;2022-07-06T12:01:32;23.60;99.90
51035;DHT22;37062;52.546;13.230;2022-07-06T12:04:00;23.50;99.90
51035;DHT22;37062;52.546;13.230;2022-07-06T12:06:29;23.50;99.90
51035;DHT22;37062;52.546;13.230;2022-07-06T12:08:58;23.50;99.90
51035;DHT22;37062;52.546;13.230;2022-07-06T12:11:27;23.50;99.90
51035;DHT22;37062;52.546;13.230;2022-07-06T12:13:56;23.60;99.90
51035;DHT22;37062;52.546;13.230;2022-07-06T12:16:30;23.70;99.90
51035;DHT22;37062;52.546;13.230;2022-07-06T12:19:01;23.70;99.90
51035;DHT22;37062;52.546;13.230;2022-07-06T12:21:29;23.90;99.90
51035;DHT22;37062;52.546;13.230;2022-07-06T12:23:57;24.00;99.90
51035;DHT22;37062;52.546;13.230;2022-07-06T12:26:27;24.20;99.90
51035;DHT22;37062;52.546;13.230;2022-07-06T12:29:02;23.90;99.90
51035;DHT22;37062;52.546;13.230;2022-07-06T12:31:32;24.00;99.90
51035;DHT22;37062;52.546;13.230;2022-07-06T12:34:01;24.10;99.90
51035;DHT22;37062;52.546;13.230;2022-07-06T12:36:28;24.30;99.90
51035;DHT22;37062;52.546;13.230;2022-07-06T12:38:55;24.30;99.90
51035;DHT22;37062;52.546;13.230;2022-07-06T12:41:30;24.40;99.90
51035;DHT22;37062;52.546;13.230;2022-07-06T12:44:06;24.30;99.90
51035;DHT22;37062;52.546;13.230;2022-07-06T12:46:35;24.50;99.90
51035;DHT22;37062;52.546;13.230;2022-07-06T12:49:11;24.50;99.90
51035;DHT22;37062;52.546;13.230;2022-07-06T12:52:08;24.60;99.90
51035;DHT22;37062;52.546;13.230;2022-07-06T12:54:39;24.60;99.90
51035;DHT22;37062;52.546;13.230;2022-07-06T12:57:09;24.30;99.90
51035;DHT22;37062;52.546;13.230;2022-07-06T12:59:39;24.20;99.90
51035;DHT22;37062;52.546;13.230;2022-07-06T13:02:08;24.00;99.90
51035;DHT22;37062;52.546;13.230;2022-07-06T13:04:37;24.20;99.90
51035;DHT22;37062;52.546;13.230;2022-07-06T13:07:05;24.50;99.90
51035;DHT22;37062;52.546;13.230;2022-07-06T13:09:32;24.30;99.90
51035;DHT22;37062;52.546;13.230;2022-07-06T13:11:59;24.20;99.90
51035;DHT22;37062;52.546;13.230;2022-07-06T13:14:26;24.00;99.90
51035;DHT22;37062;52.546;13.230;2022-07-06T13:16:53;24.10;99.90
51035;DHT22;37062;52.546;13.230;2022-07-06T13:19:20;24.30;99.90
51035;DHT22;37062;52.546;13.230;2022-07-06T13:21:49;24.50;99.90
51035;DHT22;37062;52.546;13.230;2022-07-06T13:24:16;24.50;99.90
51035;DHT22;37062;52.546;13.230;2022-07-06T13:26:43;24.30;99.90
51035;DHT22;37062;52.546;13.230;2022-07-06T13:29:12;24.20;99.90
51035;DHT22;37062;52.546;13.230;2022-07-06T13:31:40;24.30;99.90
51035;DHT22;37062;52.546;13.230;2022-07-06T13:34:07;24.30;99.90
51035;DHT22;37062;52.546;13.230;2022-07-06T13:36:35;24.30;99.90
51035;DHT22;37062;52.546;13.230;2022-07-06T13:39:03;24.20;99.90
51035;DHT22;37062;52.546;13.230;2022-07-06T13:41:31;24.30;99.90
51035;DHT22;37062;52.546;13.230;2022-07-06T13:43:58;24.00;99.90
51035;DHT22;37062;52.546;13.230;2022-07-06T13:46:26;23.90;99.90
51035;DHT22;37062;52.546;13.230;2022-07-06T13:48:53;24.10;99.90
51035;DHT22;37062;52.546;13.230;2022-07-06T13:51:22;24.20;99.90
51035;DHT22;37062;52.546;13.230;2022-07-06T13:53:50;24.30;99.90
51035;DHT22;37062;52.546;13.230;2022-07-06T13:56:18;24.30;99.90
51035;DHT22;37062;52.546;13.230;2022-07-06T13:58:45;24.20;99.90
51035;DHT22;37062;52.546;13.230;2022-07-06T14:01:12;24.20;99.90
51035;DHT22;37062;52.546;13.230;2022-07-06T14:03:39;24.20;99.90
51035;DHT22;37062;52.546;13.230;2022-07-06T14:06:07;24.20;99.90
51035;DHT22;37062;52.546;13.230;2022-07-06T14:08:35;24.30;99.90
51035;DHT22;37062;52.546;13.230;2022-07-06T14:11:03;24.40;99.90
51035;DHT22;37062;52.546;13.230;2022-07-06T14:13:32;24.30;99.90
51035;DHT22;37062;52.546;13.230;2022-07-06T14:15:59;24.30;99.90
51035;DHT22;37062;52.546;13.230;2022-07-06T14:18:31;24.30;99.90
51035;DHT22;37062;52.546;13.230;2022-07-06T14:20:58;24.10;99.90
51035;DHT22;37062;52.546;13.230;2022-07-06T14:23:29;23.90;99.90
51035;DHT22;37062;52.546;13.230;2022-07-06T14:25:56;23.90;99.90
51035;DHT22;37062;52.546;13.230;2022-07-06T14:28:24;23.80;99.90
51035;DHT22;37062;52.546;13.230;2022-07-06T14:30:52;23.60;99.90
51035;DHT22;37062;52.546;13.230;2022-07-06T14:33:19;23.40;99.90
51035;DHT22;37062;52.546;13.230;2022-07-06T14:35:49;23.20;99.90
51035;DHT22;37062;52.546;13.230;2022-07-06T14:38:18;23.00;99.90
51035;DHT22;37062;52.546;13.230;2022-07-06T14:40:46;22.90;99.90
51035;DHT22;37062;52.546;13.230;2022-07-06T14:43:14;22.60;99.90
51035;DHT22;37062;52.546;13.230;2022-07-06T14:45:43;22.50;99.90
51035;DHT22;37062;52.546;13.230;2022-07-06T14:48:11;22.50;99.90
51035;DHT22;37062;52.546;13.230;2022-07-06T14:50:38;22.40;99.90
51035;DHT22;37062;52.546;13.230;2022-07-06T14:53:05;22.40;99.90
51035;DHT22;37062;52.546;13.230;2022-07-06T14:55:33;22.40;99.90
51035;DHT22;37062;52.546;13.230;2022-07-06T14:58:00;22.40;99.90
51035;DHT22;37062;52.546;13.230;2022-07-06T15:00:27;22.40;99.90
51035;DHT22;37062;52.546;13.230;2022-07-06T15:02:54;22.30;99.90
51035;DHT22;37062;52.546;13.230;2022-07-06T15:05:23;22.20;99.90
51035;DHT22;37062;52.546;13.230;2022-07-06T15:07:50;22.00;99.90
51035;DHT22;37062;52.546;13.230;2022-07-06T15:10:17;21.80;99.90
51035;DHT22;37062;52.546;13.230;2022-07-06T15:12:44;21.60;99.90
51035;DHT22;37062;52.546;13.230;2022-07-06T15:15:11;21.60;99.90
51035;DHT22;37062;52.546;13.230;2022-07-06T15:17:38;21.60;99.90
51035;DHT22;37062;52.546;13.230;2022-07-06T15:20:05;21.60;99.90
51035;DHT22;37062;52.546;13.230;2022-07-06T15:22:33;21.60;99.90
51035;DHT22;37062;52.546;13.230;2022-07-06T15:25:01;21.70;99.90